Time;durP1;ratioP1;P1;durP2;ratioP2;P2;SDS_P1;SDS_P2;PMS_P1;PMS_P2;Temp;Humidity;BMP_temperature;BMP_pressure;BME280_temperature;BME280_humidity;BME280_pressure;Samples;Min_cycle;Max_cycle;Signal;HPM_P1;HPM_P2
2023/11/25 00:05:15;;;;;;;;;;;2.30;99.90;;;;;;21246824;27;19911;-86
2023/11/25 00:15:16;;;;;;;;;;;2.30;99.90;;;;;;21280827;27;19915;-85
2023/11/25 00:25:18;;;;;;;;;;;2.40;99.90;;;;;;21260088;27;19917;-84
2023/11/25 00:35:19;;;;;;;;;;;2.30;99.90;;;;;;21168430;27;19922;-86
2023/11/25 00:45:24;;;;;;;;;;;2.20;99.90;;;;;;21214318;27;19911;-85
2023/11/25 00:55:26;;;;;;;;;;;2.10;99.90;;;;;;21218091;27;19919;-84
2023/11/25 01:05:27;;;;;;;;;;;1.90;99.90;;;;;;21251819;27;20011;-85
2023/11/25 01:15:27;;;;;;;;;;;2.00;99.90;;;;;;21225572;27;19912;-85
2023/11/25 01:25:28;;;;;;;;;;;2.00;99.90;;;;;;21156527;28;19923;-84
2023/11/25 01:35:29;;;;;;;;;;;2.00;99.90;;;;;;21209272;27;20337;-85
2023/11/25 01:45:29;;;;;;;;;;;2.00;99.90;;;;;;21140332;28;20014;-84
2023/11/25 01:55:32;;;;;;;;;;;2.00;99.90;;;;;;21140410;28;20050;-87
2023/11/25 02:05:33;;;;;;;;;;;1.90;99.90;;;;;;21156187;28;19923;-85
2023/11/25 02:15:34;;;;;;;;;;;2.10;99.90;;;;;;21204842;27;19911;-85
2023/11/25 02:25:35;;;;;;;;;;;2.00;99.90;;;;;;21229636;27;19915;-86
2023/11/25 02:35:35;;;;;;;;;;;1.80;99.90;;;;;;21080368;28;20011;-85
2023/11/25 02:45:37;;;;;;;;;;;1.80;99.90;;;;;;21067581;28;20542;-85
2023/11/25 02:55:39;;;;;;;;;;;1.90;99.90;;;;;;21065480;28;20390;-84
2023/11/25 03:05:45;;;;;;;;;;;2.00;99.90;;;;;;21063563;28;19920;-85
2023/11/25 03:15:46;;;;;;;;;;;2.10;99.90;;;;;;21085472;28;19916;-85
2023/11/25 03:25:47;;;;;;;;;;;2.10;99.90;;;;;;21144849;27;19967;-84
2023/11/25 03:35:48;;;;;;;;;;;2.10;99.90;;;;;;21216779;27;19916;-84
2023/11/25 03:45:49;;;;;;;;;;;2.10;99.90;;;;;;21234798;27;19915;-85
2023/11/25 03:55:49;;;;;;;;;;;2.00;99.90;;;;;;21233954;28;20027;-85
2023/11/25 04:05:50;;;;;;;;;;;1.90;99.90;;;;;;21215330;28;19915;-84
2023/11/25 04:15:50;;;;;;;;;;;1.70;99.90;;;;;;21249334;28;19954;-85
2023/11/25 04:25:51;;;;;;;;;;;1.40;99.90;;;;;;21228044;28;19919;-85
2023/11/25 04:35:52;;;;;;;;;;;1.40;99.90;;;;;;21169765;27;20389;-87
2023/11/25 04:45:53;;;;;;;;;;;1.30;99.90;;;;;;21188072;27;19923;-85
2023/11/25 04:55:53;;;;;;;;;;;1.30;99.90;;;;;;21223524;27;19946;-85
2023/11/25 05:05:54;;;;;;;;;;;1.40;99.90;;;;;;21184799;27;19924;-87
2023/11/25 05:15:55;;;;;;;;;;;1.50;99.90;;;;;;21082918;28;19934;-87
2023/11/25 05:25:56;;;;;;;;;;;1.50;99.90;;;;;;21057828;28;20260;-86
2023/11/25 05:35:57;;;;;;;;;;;1.40;99.90;;;;;;21153047;27;19915;-86
2023/11/25 05:45:58;;;;;;;;;;;1.40;99.90;;;;;;21241032;27;19960;-84
2023/11/25 05:56:00;;;;;;;;;;;1.30;99.90;;;;;;21236966;27;21646;-84
2023/11/25 06:06:01;;;;;;;;;;;1.20;99.90;;;;;;21221830;27;19916;-85
2023/11/25 06:16:02;;;;;;;;;;;1.10;99.90;;;;;;21161419;27;20397;-84
2023/11/25 06:26:02;;;;;;;;;;;1.10;99.90;;;;;;21139124;28;19920;-84
2023/11/25 06:36:03;;;;;;;;;;;1.10;99.90;;;;;;21154867;28;20341;-85
2023/11/25 06:46:05;;;;;;;;;;;1.10;99.90;;;;;;21167914;28;19964;-85
2023/11/25 06:56:09;;;;;;;;;;;1.20;99.90;;;;;;21168037;28;19999;-83
2023/11/25 07:06:10;;;;;;;;;;;1.20;99.90;;;;;;21166122;28;20386;-84
2023/11/25 07:16:14;;;;;;;;;;;1.20;99.90;;;;;;21165466;28;20267;-83
2023/11/25 07:26:15;;;;;;;;;;;1.20;99.90;;;;;;21163835;28;19920;-84
2023/11/25 07:36:15;;;;;;;;;;;1.30;99.90;;;;;;21146717;28;19923;-84
2023/11/25 07:46:17;;;;;;;;;;;2.10;99.90;;;;;;21145971;28;19920;-85
2023/11/25 07:56:18;;;;;;;;;;;1.70;99.90;;;;;;21165006;28;19919;-84
2023/11/25 08:06:19;;;;;;;;;;;1.60;99.90;;;;;;21147525;28;19916;-85
2023/11/25 08:16:19;;;;;;;;;;;1.60;99.90;;;;;;21154153;28;19966;-84
2023/11/25 08:26:21;;;;;;;;;;;1.60;99.90;;;;;;21161667;28;19959;-85
2023/11/25 08:36:21;;;;;;;;;;;1.70;99.90;;;;;;21177610;28;19916;-84
2023/11/25 08:46:22;;;;;;;;;;;2.20;99.90;;;;;;21176015;28;19923;-83
2023/11/25 08:56:25;;;;;;;;;;;2.50;99.90;;;;;;21173716;28;19991;-84
2023/11/25 09:06:25;;;;;;;;;;;2.90;99.90;;;;;;21174432;28;19963;-86
2023/11/25 09:16:28;;;;;;;;;;;2.50;99.90;;;;;;21175201;28;19923;-84
2023/11/25 09:26:28;;;;;;;;;;;2.50;99.90;;;;;;21156592;28;19959;-85
2023/11/25 09:36:29;;;;;;;;;;;2.40;99.90;;;;;;21155873;28;19919;-82
2023/11/25 09:46:30;;;;;;;;;;;2.40;99.90;;;;;;21170684;28;20013;-83
2023/11/25 09:56:31;;;;;;;;;;;2.50;99.90;;;;;;21154115;28;19935;-84
2023/11/25 10:06:32;;;;;;;;;;;2.60;99.90;;;;;;21167432;28;19916;-84
2023/11/25 10:16:33;;;;;;;;;;;2.20;99.90;;;;;;21167027;28;19915;-83
2023/11/25 10:26:36;;;;;;;;;;;2.80;99.90;;;;;;21168132;28;19922;-84
2023/11/25 10:36:37;;;;;;;;;;;3.40;99.90;;;;;;21167892;28;19920;-83
2023/11/25 10:46:40;;;;;;;;;;;3.20;99.90;;;;;;21169590;28;19970;-85
2023/11/25 10:56:41;;;;;;;;;;;3.50;99.90;;;;;;21152382;28;19912;-84
2023/11/25 11:06:51;;;;;;;;;;;3.50;99.90;;;;;;21169834;28;19965;-85
2023/11/25 11:16:55;;;;;;;;;;;3.40;99.90;;;;;;21067623;28;19927;-84
2023/11/25 11:27:10;;;;;;;;;;;3.70;99.90;;;;;;21129145;28;19920;-84
2023/11/25 11:37:10;;;;;;;;;;;3.70;99.90;;;;;;21148146;28;19922;-84
2023/11/25 11:47:12;;;;;;;;;;;3.40;99.90;;;;;;21132443;28;19955;-84
2023/11/25 11:57:17;;;;;;;;;;;3.50;99.90;;;;;;21150026;28;19912;-85
2023/11/25 12:07:17;;;;;;;;;;;3.10;99.90;;;;;;21104455;28;20398;-86
2023/11/25 12:17:18;;;;;;;;;;;3.10;99.90;;;;;;21061923;28;19973;-85
2023/11/25 12:27:20;;;;;;;;;;;3.20;99.90;;;;;;21061932;28;19915;-84
2023/11/25 12:37:20;;;;;;;;;;;3.20;99.90;;;;;;21079997;28;20394;-87
2023/11/25 12:47:21;;;;;;;;;;;3.20;99.90;;;;;;21060473;28;20338;-87
2023/11/25 12:57:26;;;;;;;;;;;3.10;99.90;;;;;;21076934;28;19912;-86
2023/11/25 13:07:30;;;;;;;;;;;3.00;99.90;;;;;;21075012;28;19949;-86
2023/11/25 13:17:31;;;;;;;;;;;3.40;99.90;;;;;;21076629;28;19995;-86
2023/11/25 13:27:32;;;;;;;;;;;3.40;99.90;;;;;;21101720;28;19969;-85
2023/11/25 13:37:35;;;;;;;;;;;3.30;99.90;;;;;;21099907;28;19986;-86
2023/11/25 13:47:37;;;;;;;;;;;3.30;99.90;;;;;;21081208;28;19985;-85
2023/11/25 13:57:37;;;;;;;;;;;3.00;99.90;;;;;;21080608;28;19912;-86
2023/11/25 14:07:41;;;;;;;;;;;3.20;99.90;;;;;;21081424;28;19978;-85
2023/11/25 14:17:42;;;;;;;;;;;3.30;99.90;;;;;;21091951;28;19958;-86
2023/11/25 14:27:43;;;;;;;;;;;3.40;99.90;;;;;;21146940;28;19916;-85
2023/11/25 14:37:44;;;;;;;;;;;3.30;99.90;;;;;;21144023;28;19938;-84
2023/11/25 14:47:45;;;;;;;;;;;3.10;99.90;;;;;;21175003;28;19916;-86
2023/11/25 14:57:47;;;;;;;;;;;2.80;99.90;;;;;;21175223;28;19912;-84
2023/11/25 15:07:47;;;;;;;;;;;2.40;99.90;;;;;;21172336;28;19926;-83
2023/11/25 15:17:48;;;;;;;;;;;2.30;99.90;;;;;;21156052;28;19911;-87
2023/11/25 15:27:48;;;;;;;;;;;2.00;99.90;;;;;;21171969;28;20385;-87
2023/11/25 15:37:49;;;;;;;;;;;1.80;99.90;;;;;;21155579;28;19922;-85
2023/11/25 15:47:50;;;;;;;;;;;1.80;99.90;;;;;;21158682;28;19916;-86
2023/11/25 15:57:51;;;;;;;;;;;1.60;99.90;;;;;;21176312;28;19919;-85
2023/11/25 16:07:51;;;;;;;;;;;1.50;99.90;;;;;;21154825;28;19916;-87
2023/11/25 16:17:52;;;;;;;;;;;1.40;99.90;;;;;;21155945;28;19961;-86
2023/11/25 16:27:53;;;;;;;;;;;1.20;99.90;;;;;;21171651;28;19915;-87
2023/11/25 16:37:54;;;;;;;;;;;1.20;99.90;;;;;;21183458;28;19923;-86
2023/11/25 16:47:55;;;;;;;;;;;1.10;99.90;;;;;;21159165;28;19916;-86
2023/11/25 16:57:56;;;;;;;;;;;1.10;99.90;;;;;;21175144;28;20389;-86
2023/11/25 17:07:56;;;;;;;;;;;1.00;99.90;;;;;;21192900;28;19968;-87
2023/11/25 17:17:57;;;;;;;;;;;1.00;99.90;;;;;;21187313;28;19959;-87
2023/11/25 17:27:58;;;;;;;;;;;0.90;99.90;;;;;;21168027;28;19915;-84
2023/11/25 17:37:59;;;;;;;;;;;1.20;99.90;;;;;;21185585;28;19915;-85
2023/11/25 17:47:59;;;;;;;;;;;1.70;99.90;;;;;;21168556;28;19969;-87
2023/11/25 17:58:00;;;;;;;;;;;1.90;99.90;;;;;;21170116;28;19918;-86
2023/11/25 18:08:01;;;;;;;;;;;2.00;99.90;;;;;;21186973;28;19916;-86
2023/11/25 18:18:02;;;;;;;;;;;2.10;99.90;;;;;;21184278;28;20080;-82
2023/11/25 18:28:03;;;;;;;;;;;2.10;99.90;;;;;;21165466;28;19969;-85
2023/11/25 18:38:04;;;;;;;;;;;2.20;99.90;;;;;;21182908;28;20321;-85
2023/11/25 18:48:06;;;;;;;;;;;2.20;99.90;;;;;;21180587;28;19947;-85
2023/11/25 18:58:07;;;;;;;;;;;2.30;99.90;;;;;;21162809;28;19912;-86
2023/11/25 19:08:07;;;;;;;;;;;2.40;99.90;;;;;;21162800;28;19945;-84
2023/11/25 19:18:10;;;;;;;;;;;2.40;99.90;;;;;;21176276;28;19911;-86
2023/11/25 19:28:10;;;;;;;;;;;2.40;99.90;;;;;;21160839;28;19916;-85
2023/11/25 19:38:11;;;;;;;;;;;2.50;99.90;;;;;;21177496;28;19922;-85
2023/11/25 19:48:12;;;;;;;;;;;2.50;99.90;;;;;;21157640;28;19922;-86
2023/11/25 19:58:13;;;;;;;;;;;2.60;99.90;;;;;;21177805;28;19919;-84
2023/11/25 20:08:14;;;;;;;;;;;2.60;99.90;;;;;;21177829;28;19922;-85
2023/11/25 20:18:14;;;;;;;;;;;2.60;99.90;;;;;;21190024;28;20367;-85
2023/11/25 20:28:15;;;;;;;;;;;2.60;99.90;;;;;;21190799;28;19916;-84
2023/11/25 20:38:16;;;;;;;;;;;2.70;99.90;;;;;;21189065;28;19916;-87
2023/11/25 20:48:17;;;;;;;;;;;2.70;99.90;;;;;;21185256;28;19915;-85
2023/11/25 20:58:18;;;;;;;;;;;2.70;99.90;;;;;;21182909;28;19912;-83
2023/11/25 21:08:19;;;;;;;;;;;2.70;99.90;;;;;;21184538;28;19916;-85
2023/11/25 21:18:21;;;;;;;;;;;2.80;99.90;;;;;;21146950;28;20275;-85
2023/11/25 21:28:22;;;;;;;;;;;2.80;99.90;;;;;;21159668;28;19919;-86
2023/11/25 21:38:24;;;;;;;;;;;2.80;99.90;;;;;;21164071;28;19969;-85
2023/11/25 21:48:25;;;;;;;;;;;2.80;99.90;;;;;;21163612;28;19923;-84
2023/11/25 21:58:25;;;;;;;;;;;2.90;99.90;;;;;;21177731;28;19959;-85
2023/11/25 22:08:26;;;;;;;;;;;2.80;99.90;;;;;;21159983;28;19985;-85
2023/11/25 22:18:27;;;;;;;;;;;2.80;99.90;;;;;;21159668;28;19912;-87
2023/11/25 22:28:28;;;;;;;;;;;2.90;99.90;;;;;;21155644;28;19926;-86
2023/11/25 22:38:28;;;;;;;;;;;2.90;99.90;;;;;;21175276;28;20359;-86
2023/11/25 22:48:29;;;;;;;;;;;2.80;99.90;;;;;;21157962;28;19965;-84
2023/11/25 22:58:30;;;;;;;;;;;2.80;99.90;;;;;;21157803;28;19937;-86
2023/11/25 23:08:30;;;;;;;;;;;2.80;99.90;;;;;;21155669;28;20385;-86
2023/11/25 23:18:31;;;;;;;;;;;2.90;99.90;;;;;;21155955;28;20285;-84
2023/11/25 23:28:32;;;;;;;;;;;2.90;99.90;;;;;;21138023;28;20383;-84
2023/11/25 23:38:33;;;;;;;;;;;2.90;99.90;;;;;;21135852;28;20018;-83
2023/11/25 23:48:35;;;;;;;;;;;2.90;99.90;;;;;;21152914;28;19916;-84
2023/11/25 23:58:36;;;;;;;;;;;2.90;99.90;;;;;;21135031;28;19912;-86
